createdAt,value
2023-01-30T00:00:37.353Z,101292.53
2023-01-30T00:03:17.138Z,101295.59
2023-01-30T00:12:08.847Z,101276.16
2023-01-30T00:19:28.158Z,101285.19
2023-01-30T00:21:56.768Z,101270.53
2023-01-30T00:31:02.619Z,101312.03
2023-01-30T00:33:58.005Z,101336.50
2023-01-30T00:39:49.473Z,101343.78
2023-01-30T00:44:46.971Z,101362.72
2023-01-30T00:51:08.999Z,101343.59
2023-01-30T00:54:01.499Z,101334.06
2023-01-30T00:57:17.128Z,101332.44
2023-01-30T01:03:44.159Z,101352.25
2023-01-30T01:07:59.259Z,101355.91
2023-01-30T01:10:59.657Z,101356.94
2023-01-30T01:14:23.918Z,101351.28
2023-01-30T01:24:36.468Z,101360.81
2023-01-30T01:27:18.426Z,101330.22
2023-01-30T01:30:03.466Z,101334.31
2023-01-30T01:45:26.179Z,101270.03
2023-01-30T01:48:34.167Z,101266.41
2023-01-30T01:51:30.410Z,101258.75
2023-01-30T01:54:09.500Z,101288.84
2023-01-30T01:57:02.983Z,101277.38
2023-01-30T02:02:59.134Z,101278.63
2023-01-30T02:05:34.108Z,101298.25
2023-01-30T02:08:11.162Z,101292.06
2023-01-30T02:10:51.316Z,101263.81
2023-01-30T02:13:22.054Z,101235.25
2023-01-30T02:15:52.983Z,101252.69
2023-01-30T02:18:26.041Z,101233.41
2023-01-30T02:21:30.252Z,101251.16
2023-01-30T02:24:28.306Z,101242.75
2023-01-30T02:27:29.327Z,101246.34
2023-01-30T02:30:25.628Z,101227.16
2023-01-30T02:33:15.014Z,101212.78
2023-01-30T02:35:56.077Z,101207.72
2023-01-30T02:38:42.697Z,101203.16
2023-01-30T02:41:27.607Z,101182.94
2023-01-30T02:44:07.765Z,101157.13
2023-01-30T02:46:47.902Z,101128.56
2023-01-30T02:49:26.789Z,101109.47
2023-01-30T02:52:00.255Z,101108.91
2023-01-30T02:54:30.442Z,101128.72
2023-01-30T03:04:07.172Z,101120.16
2023-01-30T03:11:30.246Z,101039.34
2023-01-30T03:32:56.791Z,101126.56
2023-01-30T03:35:36.041Z,101126.09
2023-01-30T03:38:10.474Z,101129.53
2023-01-30T03:41:31.256Z,101129.06
2023-01-30T03:44:07.416Z,101153.00
2023-01-30T03:50:44.507Z,101154.41
2023-01-30T03:58:36.828Z,101135.19
2023-01-30T04:01:20.131Z,101133.78
2023-01-30T04:21:37.126Z,101138.50
2023-01-30T04:29:01.694Z,101146.19
2023-01-30T04:32:24.437Z,101130.19
2023-01-30T04:35:29.218Z,101144.84
2023-01-30T04:38:58.532Z,101156.31
2023-01-30T04:45:10.818Z,101142.19
2023-01-30T04:47:40.695Z,101134.22
2023-01-30T04:50:12.419Z,101131.38
2023-01-30T04:52:42.407Z,101132.34
2023-01-30T04:55:13.964Z,101140.19
2023-01-30T04:57:46.919Z,101129.69
2023-01-30T05:00:17.492Z,101122.81
2023-01-30T05:02:55.970Z,101110.91
2023-01-30T05:05:27.033Z,101108.59
2023-01-30T05:07:57.331Z,101112.25
2023-01-30T05:10:27.457Z,101103.19
2023-01-30T05:12:59.894Z,101080.13
2023-01-30T05:15:29.693Z,101097.88
2023-01-30T05:17:59.769Z,101093.31
2023-01-30T05:20:32.996Z,101081.66
2023-01-30T05:23:02.816Z,101088.41
2023-01-30T05:25:32.839Z,101090.31
2023-01-30T05:28:05.344Z,101094.94
2023-01-30T05:30:35.240Z,101098.13
2023-01-30T05:33:05.106Z,101084.50
2023-01-30T05:35:34.975Z,101073.59
2023-01-30T05:38:04.979Z,101074.31
2023-01-30T05:40:34.917Z,101048.88
2023-01-30T05:43:07.357Z,101063.88
2023-01-30T05:45:37.327Z,101071.31
2023-01-30T05:48:07.785Z,101107.56
2023-01-30T05:50:37.927Z,101081.00
2023-01-30T05:53:08.165Z,101076.25
2023-01-30T05:55:38.168Z,101081.16
2023-01-30T05:58:10.675Z,101086.19
2023-01-30T06:00:40.899Z,101074.72
2023-01-30T06:03:10.894Z,101088.97
2023-01-30T06:05:41.491Z,101082.78
2023-01-30T06:08:11.492Z,101084.84
2023-01-30T06:10:41.464Z,101081.25
2023-01-30T06:13:13.899Z,101067.03
2023-01-30T06:15:43.784Z,101072.94
2023-01-30T06:18:13.692Z,101055.66
2023-01-30T06:20:43.568Z,101055.31
2023-01-30T06:23:13.414Z,101065.81
2023-01-30T06:25:47.709Z,101056.91
2023-01-30T06:28:22.366Z,101048.88
2023-01-30T06:30:52.889Z,101051.81
2023-01-30T06:33:23.380Z,101052.47
2023-01-30T06:35:56.910Z,101044.13
2023-01-30T06:38:26.744Z,101042.47
2023-01-30T06:40:56.667Z,101049.00
2023-01-30T06:43:29.104Z,101064.19
2023-01-30T06:46:01.521Z,101067.34
2023-01-30T06:48:31.530Z,101068.38
2023-01-30T06:51:01.524Z,101057.41
2023-01-30T06:53:32.897Z,101070.47
2023-01-30T06:56:04.656Z,101063.16
2023-01-30T06:58:37.155Z,101066.00
2023-01-30T07:01:07.141Z,101080.88
2023-01-30T07:03:37.187Z,101088.25
2023-01-30T07:06:07.287Z,101080.13
2023-01-30T07:08:37.624Z,101078.97
2023-01-30T07:11:09.146Z,101096.81
2023-01-30T07:13:42.440Z,101102.81
2023-01-30T07:16:16.854Z,101096.44
2023-01-30T07:18:48.164Z,101099.09
2023-01-30T07:21:18.759Z,101111.63
2023-01-30T07:23:51.227Z,101110.09
2023-01-30T07:26:21.364Z,101110.34
2023-01-30T07:28:53.820Z,101113.88
2023-01-30T07:31:23.741Z,101122.78
2023-01-30T07:33:53.581Z,101129.75
2023-01-30T07:36:26.006Z,101128.09
2023-01-30T07:38:58.729Z,101131.13
2023-01-30T07:41:34.156Z,101122.72
2023-01-30T07:44:09.390Z,101114.47
2023-01-30T07:46:39.259Z,101099.56
2023-01-30T07:49:11.815Z,101095.03
2023-01-30T07:51:41.728Z,101080.84
2023-01-30T07:54:11.654Z,101079.28
2023-01-30T07:56:41.603Z,101063.72
2023-01-30T07:59:17.878Z,101076.47
2023-01-30T08:01:47.740Z,101071.78
2023-01-30T08:04:17.780Z,101082.97
2023-01-30T08:06:47.987Z,101089.44
2023-01-30T08:09:17.925Z,101091.28
2023-01-30T08:11:47.869Z,101085.06
2023-01-30T08:14:26.524Z,101090.94
2023-01-30T08:16:56.598Z,101095.84
2023-01-30T08:19:26.486Z,101082.41
2023-01-30T08:21:56.386Z,101094.03
2023-01-30T08:24:26.277Z,101093.31
2023-01-30T08:26:56.173Z,101093.16
2023-01-30T08:29:28.863Z,101097.28
2023-01-30T08:32:00.145Z,101091.38
2023-01-30T08:34:30.446Z,101092.13
2023-01-30T08:37:00.515Z,101069.22
2023-01-30T08:39:30.358Z,101071.91
2023-01-30T08:42:00.193Z,101075.06
2023-01-30T08:44:32.604Z,101077.00
2023-01-30T08:47:02.413Z,101073.19
2023-01-30T08:49:32.226Z,101059.69
2023-01-30T08:52:02.146Z,101050.41
2023-01-30T08:54:33.354Z,101044.34
2023-01-30T08:57:03.310Z,101046.22
2023-01-30T08:59:35.852Z,101029.88
2023-01-30T09:02:06.085Z,101029.38
2023-01-30T09:04:36.252Z,101035.41
2023-01-30T09:07:06.256Z,101041.84
2023-01-30T09:09:39.095Z,101015.94
2023-01-30T09:12:09.107Z,101037.06
2023-01-30T09:14:44.908Z,101041.28
2023-01-30T09:17:15.073Z,101043.28
2023-01-30T09:19:45.095Z,101043.63
2023-01-30T09:22:15.074Z,101035.97
2023-01-30T09:24:44.984Z,101026.28
2023-01-30T09:27:14.999Z,101018.50
2023-01-30T09:29:47.565Z,101034.47
2023-01-30T09:32:17.544Z,101023.06
2023-01-30T09:34:48.751Z,101022.84
2023-01-30T09:37:18.623Z,101028.06
2023-01-30T09:39:48.504Z,101021.03
2023-01-30T09:42:53.432Z,101011.78
2023-01-30T09:45:46.879Z,101002.66
2023-01-30T09:48:23.322Z,101015.19
2023-01-30T09:51:29.933Z,101016.25
2023-01-30T09:54:24.553Z,101002.94
2023-01-30T09:57:02.516Z,101009.38
2023-01-30T09:59:43.953Z,101007.28
2023-01-30T10:02:34.398Z,101003.31
2023-01-30T10:05:04.789Z,101021.16
2023-01-30T10:07:49.670Z,101005.38
2023-01-30T10:10:30.513Z,101022.41
2023-01-30T10:13:13.032Z,101019.84
2023-01-30T10:15:55.267Z,101022.50
2023-01-30T10:18:58.221Z,101016.13
2023-01-30T10:21:43.414Z,101007.97
2023-01-30T10:24:41.201Z,101006.34
2023-01-30T10:27:17.630Z,101014.69
2023-01-30T10:29:52.140Z,101006.25
2023-01-30T10:32:29.120Z,100977.44
2023-01-30T10:35:10.650Z,100979.53
2023-01-30T10:37:49.086Z,100968.88
2023-01-30T10:40:28.071Z,100963.16
2023-01-30T10:43:09.024Z,100975.91
2023-01-30T10:45:51.289Z,100985.53
2023-01-30T10:48:46.556Z,100978.28
2023-01-30T10:51:48.532Z,100993.19
2023-01-30T10:54:27.048Z,100986.00
2023-01-30T10:57:11.430Z,101008.41
2023-01-30T10:59:56.286Z,100985.53
2023-01-30T11:02:29.181Z,100988.09
2023-01-30T11:05:02.112Z,100999.09
2023-01-30T11:07:36.723Z,100994.25
2023-01-30T11:10:20.481Z,100994.81
2023-01-30T11:12:58.701Z,100988.56
2023-01-30T11:15:44.351Z,101013.00
2023-01-30T11:21:10.877Z,100991.72
2023-01-30T11:23:46.783Z,100992.75
2023-01-30T11:26:26.089Z,100984.44
2023-01-30T11:28:59.497Z,101007.38
2023-01-30T11:31:41.365Z,101000.81
2023-01-30T11:34:18.699Z,100979.56
2023-01-30T11:36:49.717Z,100978.97
2023-01-30T11:39:31.463Z,100977.63
2023-01-30T11:42:05.831Z,100974.88
2023-01-30T11:44:38.272Z,100968.78
2023-01-30T11:47:12.767Z,100985.84
2023-01-30T11:50:10.331Z,100981.53
2023-01-30T11:52:46.719Z,100977.22
2023-01-30T11:55:23.233Z,100970.59
2023-01-30T11:57:58.660Z,100970.41
2023-01-30T12:00:41.067Z,100984.31
2023-01-30T12:03:16.488Z,100995.59
2023-01-30T12:05:49.307Z,100991.59
2023-01-30T12:08:42.576Z,100984.56
2023-01-30T12:11:45.203Z,100971.38
2023-01-30T12:14:29.662Z,100982.50
2023-01-30T12:17:11.819Z,100987.81
2023-01-30T12:20:06.223Z,100977.56
2023-01-30T12:22:47.718Z,100960.28
2023-01-30T12:25:25.052Z,100962.78
2023-01-30T12:28:04.646Z,100959.44
2023-01-30T12:30:41.711Z,100961.09
2023-01-30T12:36:07.421Z,100973.09
2023-01-30T12:38:58.692Z,100985.81
2023-01-30T12:41:48.020Z,100974.63
2023-01-30T12:44:51.789Z,100983.75
2023-01-30T12:47:42.939Z,100988.84
2023-01-30T12:50:28.374Z,100989.88
2023-01-30T12:53:18.759Z,100986.03
2023-01-30T12:56:00.756Z,100989.25
2023-01-30T12:58:43.735Z,101006.06
2023-01-30T13:01:29.810Z,100997.59
2023-01-30T13:04:12.357Z,101015.09
2023-01-30T13:07:09.761Z,101010.13
2023-01-30T13:10:01.049Z,101022.69
2023-01-30T13:12:41.328Z,101019.16
2023-01-30T13:15:28.207Z,101016.38
2023-01-30T13:18:14.747Z,101017.91
2023-01-30T13:21:00.436Z,101009.72
2023-01-30T13:23:44.309Z,101003.66
2023-01-30T13:26:19.306Z,101001.19
2023-01-30T13:28:53.945Z,101008.00
2023-01-30T13:31:30.970Z,101004.63
2023-01-30T13:34:09.510Z,101007.28
2023-01-30T13:36:46.672Z,101011.03
2023-01-30T13:39:23.693Z,101022.28
2023-01-30T13:41:59.494Z,101021.34
2023-01-30T13:44:34.357Z,101025.69
2023-01-30T13:47:21.153Z,101028.84
2023-01-30T13:50:13.020Z,101037.97
2023-01-30T13:52:49.604Z,101037.56
2023-01-30T13:55:36.338Z,101040.31
2023-01-30T13:58:25.565Z,101049.06
2023-01-30T14:00:57.826Z,101044.56
2023-01-30T14:03:33.485Z,101063.22
2023-01-30T14:06:40.437Z,101070.19
2023-01-30T14:09:33.315Z,101075.91
2023-01-30T14:12:06.870Z,101076.06
2023-01-30T14:14:40.764Z,101056.38
2023-01-30T14:17:15.033Z,101055.44
2023-01-30T14:20:01.516Z,101045.47
2023-01-30T14:22:39.717Z,101053.63
2023-01-30T14:25:48.113Z,101056.19
2023-01-30T14:28:51.143Z,101042.22
2023-01-30T14:31:54.345Z,101049.66
2023-01-30T14:34:52.394Z,101065.59
2023-01-30T14:38:07.353Z,101062.47
2023-01-30T14:40:42.896Z,101060.84
2023-01-30T14:43:42.674Z,101071.06
2023-01-30T14:46:58.290Z,101063.09
2023-01-30T14:49:32.707Z,101061.19
2023-01-30T14:52:05.723Z,101048.22
2023-01-30T14:54:52.503Z,101072.00
2023-01-30T14:57:32.577Z,101069.50
2023-01-30T15:00:18.705Z,101079.47
2023-01-30T15:02:56.797Z,101089.28
2023-01-30T15:05:34.970Z,101090.34
2023-01-30T15:08:15.259Z,101101.84
2023-01-30T15:11:07.302Z,101103.13
2023-01-30T15:13:56.679Z,101099.94
2023-01-30T15:16:47.495Z,101113.78
2023-01-30T15:19:51.986Z,101114.09
2023-01-30T15:22:39.426Z,101107.84
2023-01-30T15:25:43.528Z,101105.75
2023-01-30T15:28:30.881Z,101101.31
2023-01-30T15:31:12.927Z,101110.09
2023-01-30T15:33:51.466Z,101121.69
2023-01-30T15:36:26.078Z,101114.59
2023-01-30T15:39:04.939Z,101114.09
2023-01-30T15:41:42.990Z,101097.84
2023-01-30T15:44:45.606Z,101120.63
2023-01-30T15:47:40.067Z,101131.28
2023-01-30T15:50:13.175Z,101129.25
2023-01-30T15:52:48.327Z,101139.41
2023-01-30T15:55:32.534Z,101150.97
2023-01-30T15:58:36.840Z,101143.88
2023-01-30T16:01:37.788Z,101158.16
2023-01-30T16:05:00.555Z,101164.38
2023-01-30T16:07:49.259Z,101149.03
2023-01-30T16:10:27.935Z,101159.88
2023-01-30T16:13:05.332Z,101163.66
2023-01-30T16:15:48.223Z,101171.88
2023-01-30T16:18:32.587Z,101179.88
2023-01-30T16:21:09.545Z,101175.31
2023-01-30T16:23:47.872Z,101177.41
2023-01-30T16:26:34.929Z,101188.06
2023-01-30T16:32:58.896Z,101175.78
2023-01-30T16:35:37.764Z,101197.38
2023-01-30T16:38:31.789Z,101208.81
2023-01-30T16:41:01.828Z,101215.88
2023-01-30T16:43:35.100Z,101224.13
2023-01-30T16:46:37.817Z,101231.91
2023-01-30T16:49:08.800Z,101239.72
2023-01-30T16:51:41.499Z,101232.97
2023-01-30T16:54:21.905Z,101235.53
2023-01-30T16:56:56.924Z,101244.31
2023-01-30T16:59:33.973Z,101244.97
2023-01-30T17:02:08.180Z,101242.50
2023-01-30T17:04:41.458Z,101238.50
2023-01-30T17:07:36.786Z,101227.44
2023-01-30T17:10:07.363Z,101231.91
2023-01-30T17:12:45.903Z,101226.38
2023-01-30T17:15:32.103Z,101230.88
2023-01-30T17:18:02.095Z,101242.19
2023-01-30T17:20:51.214Z,101237.91
2023-01-30T17:23:24.659Z,101235.91
2023-01-30T17:25:54.672Z,101226.97
2023-01-30T17:28:24.572Z,101227.69
2023-01-30T17:30:54.605Z,101233.03
2023-01-30T17:33:25.921Z,101235.34
2023-01-30T17:35:55.902Z,101227.91
2023-01-30T17:38:28.349Z,101230.22
2023-01-30T17:40:58.274Z,101235.06
2023-01-30T17:43:28.168Z,101242.66
2023-01-30T17:45:58.673Z,101259.13
2023-01-30T17:48:28.645Z,101258.34
2023-01-30T17:50:58.640Z,101268.94
2023-01-30T17:53:31.227Z,101276.75
2023-01-30T17:56:01.164Z,101282.53
2023-01-30T17:58:31.122Z,101294.25
2023-01-30T18:01:01.000Z,101310.25
2023-01-30T18:03:30.905Z,101304.72
2023-01-30T18:06:01.022Z,101314.16
2023-01-30T18:08:33.550Z,101312.44
2023-01-30T18:11:03.450Z,101310.03
2023-01-30T18:13:35.000Z,101318.72
2023-01-30T18:16:06.114Z,101316.16
2023-01-30T18:18:36.455Z,101314.22
2023-01-30T18:21:06.495Z,101321.75
2023-01-30T18:23:39.523Z,101335.38
2023-01-30T18:26:09.447Z,101338.34
2023-01-30T18:28:40.195Z,101341.88
2023-01-30T18:31:10.290Z,101348.41
2023-01-30T18:33:40.927Z,101362.34
2023-01-30T18:36:12.839Z,101359.09
2023-01-30T18:38:45.844Z,101365.09
2023-01-30T18:41:19.172Z,101363.69
2023-01-30T18:43:50.870Z,101360.72
2023-01-30T18:46:21.081Z,101374.13
2023-01-30T18:48:51.228Z,101371.91
2023-01-30T18:51:24.704Z,101379.09
2023-01-30T18:53:58.565Z,101382.97
2023-01-30T18:56:31.383Z,101384.69
2023-01-30T18:59:04.178Z,101389.38
2023-01-30T19:01:38.704Z,101398.03
2023-01-30T19:04:10.571Z,101399.56
2023-01-30T19:06:42.487Z,101404.63
2023-01-30T19:09:19.133Z,101402.13
2023-01-30T19:12:01.581Z,101401.47
2023-01-30T19:14:31.490Z,101400.78
2023-01-30T19:17:01.482Z,101401.63
2023-01-30T19:19:32.367Z,101403.94
2023-01-30T19:22:02.290Z,101403.38
2023-01-30T19:24:34.775Z,101400.13
2023-01-30T19:27:07.597Z,101400.03
2023-01-30T19:29:37.465Z,101408.31
2023-01-30T19:32:08.190Z,101402.72
2023-01-30T19:34:38.591Z,101407.38
2023-01-30T19:37:08.709Z,101412.22
2023-01-30T19:39:41.226Z,101405.84
2023-01-30T19:42:11.100Z,101411.56
2023-01-30T19:44:41.152Z,101413.38
2023-01-30T19:47:13.946Z,101418.31
2023-01-30T19:49:43.841Z,101426.88
2023-01-30T19:52:13.658Z,101420.31
2023-01-30T19:54:47.067Z,101422.97
2023-01-30T19:57:16.981Z,101426.59
2023-01-30T19:59:47.006Z,101429.06
2023-01-30T20:02:16.909Z,101429.47
2023-01-30T20:04:46.805Z,101429.00
2023-01-30T20:07:16.783Z,101435.75
2023-01-30T20:09:49.379Z,101442.81
2023-01-30T20:12:19.276Z,101446.50
2023-01-30T20:14:49.180Z,101451.59
2023-01-30T20:17:36.591Z,101449.66
2023-01-30T20:20:22.601Z,101454.25
2023-01-30T20:23:28.578Z,101450.81
2023-01-30T20:26:26.033Z,101460.53
2023-01-30T20:29:20.042Z,101459.19
2023-01-30T20:35:09.113Z,101451.84
2023-01-30T20:42:28.624Z,101469.88
2023-01-30T20:46:32.520Z,101463.22
2023-01-30T20:49:32.017Z,101476.94
2023-01-30T20:52:01.994Z,101491.59
2023-01-30T20:54:31.990Z,101492.00
2023-01-30T21:08:37.085Z,101501.72
2023-01-30T21:28:48.330Z,101512.56
2023-01-30T21:31:21.299Z,101514.09
2023-01-30T21:33:51.385Z,101512.41
2023-01-30T21:36:21.790Z,101532.97
2023-01-30T21:39:04.250Z,101528.88
2023-01-30T21:41:59.300Z,101538.22
2023-01-30T21:44:34.148Z,101540.97
2023-01-30T21:47:04.016Z,101544.41
2023-01-30T21:49:34.067Z,101547.66
2023-01-30T21:52:07.266Z,101556.91
2023-01-30T21:54:37.745Z,101558.13
2023-01-30T21:57:07.682Z,101547.44
2023-01-30T21:59:46.740Z,101562.13
2023-01-30T22:02:19.177Z,101565.56
2023-01-30T22:04:50.554Z,101561.00
2023-01-30T22:43:02.431Z,101580.06
